Time;durP1;ratioP1;P1;durP2;ratioP2;P2;SDS_P1;SDS_P2;PMS_P1;PMS_P2;Temp;Humidity;BMP_temperature;BMP_pressure;BME280_temperature;BME280_humidity;BME280_pressure;Samples;Min_cycle;Max_cycle;Signal;HPM_P1;HPM_P2
2022/12/14 00:00:43;;;;;;;31.03;15.23;;;-0.20;99.90;;;;;;5011706;28;20167;-76
2022/12/14 00:03:10;;;;;;;28.67;15.23;;;-0.10;99.90;;;;;;5012991;28;20203;-76
2022/12/14 00:05:39;;;;;;;26.10;14.43;;;-0.20;99.90;;;;;;5010916;28;20208;-77
2022/12/14 00:08:05;;;;;;;27.00;15.13;;;-0.20;99.90;;;;;;5012798;28;20187;-76
2022/12/14 00:10:32;;;;;;;27.47;14.40;;;-0.10;99.90;;;;;;5012983;28;20153;-75
2022/12/14 00:12:59;;;;;;;29.17;14.30;;;-0.10;99.90;;;;;;5011650;28;20630;-75
2022/12/14 00:15:25;;;;;;;26.93;13.73;;;-0.20;99.90;;;;;;5011972;28;20642;-75
2022/12/14 00:17:54;;;;;;;28.80;14.20;;;-0.20;99.90;;;;;;5012937;28;20169;-75
2022/12/14 00:20:20;;;;;;;29.80;15.17;;;-0.30;99.90;;;;;;5011264;28;20227;-74
2022/12/14 00:22:46;;;;;;;32.77;15.87;;;-0.20;99.90;;;;;;5011600;28;20671;-75
2022/12/14 00:25:11;;;;;;;29.30;15.43;;;-0.20;99.90;;;;;;5010879;28;20223;-75
2022/12/14 00:27:44;;;;;;;28.67;13.87;;;-0.30;99.90;;;;;;5012195;28;20175;-75
2022/12/14 00:30:12;;;;;;;29.40;14.20;;;-0.20;99.90;;;;;;5011693;28;20254;-75
2022/12/14 00:32:40;;;;;;;29.10;14.17;;;-0.20;99.90;;;;;;5016208;28;20174;-76
2022/12/14 00:35:09;;;;;;;29.23;15.70;;;-0.10;99.90;;;;;;5014989;28;20171;-74
2022/12/14 00:37:35;;;;;;;29.23;14.70;;;-0.20;99.90;;;;;;4998354;28;20178;-76
2022/12/14 00:40:01;;;;;;;27.50;14.63;;;-0.40;99.90;;;;;;5016329;28;20167;-75
2022/12/14 00:42:26;;;;;;;27.43;14.30;;;-0.60;99.90;;;;;;5015121;28;20174;-75
2022/12/14 00:44:54;;;;;;;34.17;14.17;;;-0.60;99.90;;;;;;5016200;28;20155;-76
2022/12/14 00:47:19;;;;;;;32.97;15.40;;;-0.70;99.90;;;;;;5015564;28;20535;-75
2022/12/14 00:49:45;;;;;;;29.70;14.73;;;-0.60;99.90;;;;;;5016038;28;20169;-76
2022/12/14 00:52:11;;;;;;;31.53;15.40;;;-0.60;99.90;;;;;;5015896;28;20171;-75
2022/12/14 00:54:36;;;;;;;26.87;14.23;;;-0.60;99.90;;;;;;5014767;28;20542;-76
2022/12/14 00:57:02;;;;;;;31.97;14.60;;;-0.60;99.90;;;;;;5015860;28;20168;-76
2022/12/14 00:59:27;;;;;;;28.57;15.27;;;-0.60;99.90;;;;;;5016022;28;20196;-75
2022/12/14 01:01:53;;;;;;;28.67;14.17;;;-0.50;99.90;;;;;;5015354;28;20185;-76
2022/12/14 01:04:21;;;;;;;28.47;14.43;;;-0.60;99.90;;;;;;5015862;28;20181;-75
2022/12/14 01:06:53;;;;;;;29.33;15.10;;;-0.60;99.90;;;;;;5014303;28;20257;-74
2022/12/14 01:09:21;;;;;;;30.93;15.43;;;-0.50;99.90;;;;;;5016139;28;20200;-75
2022/12/14 01:11:46;;;;;;;29.80;15.33;;;-0.50;99.90;;;;;;5015559;28;20190;-76
2022/12/14 01:14:16;;;;;;;27.27;15.63;;;-0.50;99.90;;;;;;5015747;28;20171;-76
2022/12/14 01:16:42;;;;;;;26.10;14.27;;;-0.40;99.90;;;;;;5015334;28;20177;-75
2022/12/14 01:19:10;;;;;;;29.43;14.13;;;-0.30;99.90;;;;;;5015673;28;20162;-75
2022/12/14 01:21:38;;;;;;;32.03;14.63;;;-0.30;99.90;;;;;;5014140;28;20709;-75
2022/12/14 01:24:05;;;;;;;27.40;14.23;;;-0.40;99.90;;;;;;5015228;28;20251;-75
2022/12/14 01:26:34;;;;;;;27.60;14.03;;;-0.50;99.90;;;;;;5014878;28;20202;-75
2022/12/14 01:29:00;;;;;;;28.23;15.03;;;-0.50;99.90;;;;;;5015197;28;20639;-75
2022/12/14 01:31:28;;;;;;;29.57;14.97;;;-0.50;99.90;;;;;;5015296;28;20172;-75
2022/12/14 01:33:54;;;;;;;31.37;15.10;;;-0.60;99.90;;;;;;5014887;28;20170;-75
2022/12/14 01:36:22;;;;;;;31.50;14.97;;;-0.60;99.90;;;;;;5013939;28;20252;-75
2022/12/14 01:38:55;;;;;;;31.40;14.97;;;-0.50;99.90;;;;;;5013661;28;20196;-75
2022/12/14 01:41:39;;;;;;;30.97;13.97;;;-0.40;99.90;;;;;;5013838;28;20282;-75
2022/12/14 01:44:07;;;;;;;31.03;16.00;;;-0.40;99.90;;;;;;5014587;28;20192;-75
2022/12/14 01:46:39;;;;;;;27.37;13.90;;;-0.40;99.90;;;;;;5014459;28;20203;-75
2022/12/14 01:49:11;;;;;;;27.03;13.47;;;-0.30;99.90;;;;;;5014941;28;20177;-75
2022/12/14 01:51:40;;;;;;;27.83;13.40;;;-0.20;99.90;;;;;;5015267;28;20177;-75
2022/12/14 01:54:11;;;;;;;28.30;14.43;;;-0.20;99.90;;;;;;5014970;28;20180;-75
2022/12/14 01:56:41;;;;;;;32.37;14.67;;;-0.30;99.90;;;;;;5014965;28;20255;-76
2022/12/14 01:59:22;;;;;;;29.40;14.20;;;-0.30;99.90;;;;;;5014970;28;20173;-75
2022/12/14 02:01:53;;;;;;;25.90;13.60;;;-0.30;99.90;;;;;;5015126;28;20645;-75
2022/12/14 02:04:20;;;;;;;28.27;12.97;;;-0.20;99.90;;;;;;5013524;28;20171;-75
2022/12/14 02:06:50;;;;;;;27.17;13.70;;;-0.10;99.90;;;;;;5014616;28;20181;-75
2022/12/14 02:09:24;;;;;;;24.70;12.10;;;-0.10;99.90;;;;;;5014402;28;20565;-75
2022/12/14 02:12:13;;;;;;;27.27;14.53;;;-0.10;99.90;;;;;;5014711;28;20268;-76
2022/12/14 02:14:40;;;;;;;27.13;13.13;;;-0.10;99.90;;;;;;5014143;28;20182;-75
2022/12/14 02:17:09;;;;;;;28.10;12.57;;;0.00;99.90;;;;;;5013335;28;20267;-75
2022/12/14 02:19:36;;;;;;;24.53;13.17;;;0.00;99.90;;;;;;5014513;28;20172;-75
2022/12/14 02:22:10;;;;;;;24.90;12.07;;;0.00;99.90;;;;;;5014277;28;20169;-73
2022/12/14 02:24:44;;;;;;;25.90;13.77;;;0.00;99.90;;;;;;5014196;28;20637;-76
2022/12/14 02:27:47;;;;;;;25.80;12.93;;;0.00;99.90;;;;;;5014319;28;20192;-74
2022/12/14 02:30:20;;;;;;;26.90;13.03;;;0.00;99.90;;;;;;5014270;28;20179;-73
2022/12/14 02:32:54;;;;;;;23.20;13.23;;;0.10;99.90;;;;;;5013856;28;20258;-74
2022/12/14 02:35:35;;;;;;;25.60;12.93;;;0.10;99.90;;;;;;5014447;28;20175;-74
2022/12/14 02:38:16;;;;;;;23.60;12.17;;;0.20;99.90;;;;;;5013837;28;20187;-74
2022/12/14 02:41:05;;;;;;;20.17;11.20;;;0.20;99.90;;;;;;5013745;28;20183;-74
2022/12/14 02:43:56;;;;;;;20.83;11.30;;;0.30;99.90;;;;;;5013869;28;20211;-73
2022/12/14 02:46:35;;;;;;;26.33;12.70;;;0.20;99.90;;;;;;5013900;28;20198;-74
2022/12/14 02:49:33;;;;;;;24.83;11.43;;;0.20;99.90;;;;;;5013828;28;20176;-74
2022/12/14 02:52:21;;;;;;;22.50;12.03;;;0.20;99.90;;;;;;5012449;28;20266;-73
2022/12/14 02:54:59;;;;;;;23.17;12.63;;;0.30;99.90;;;;;;5013766;28;20187;-74
2022/12/14 02:57:30;;;;;;;25.30;13.23;;;0.20;99.90;;;;;;5013523;28;20171;-73
2022/12/14 03:00:00;;;;;;;25.03;12.87;;;0.30;99.90;;;;;;5013513;28;20185;-74
2022/12/14 03:02:28;;;;;;;24.70;12.40;;;0.30;99.90;;;;;;5013783;28;20165;-74
2022/12/14 03:04:54;;;;;;;23.53;12.63;;;0.30;99.90;;;;;;5012247;28;20156;-74
2022/12/14 03:07:38;;;;;;;23.47;13.07;;;0.40;99.90;;;;;;5012428;28;20263;-76
2022/12/14 03:10:36;;;;;;;25.13;13.37;;;0.60;99.90;;;;;;5013186;28;20185;-73
2022/12/14 03:13:19;;;;;;;22.77;11.57;;;0.60;99.90;;;;;;5013371;28;20742;-76
2022/12/14 03:15:56;;;;;;;24.57;11.97;;;0.40;99.90;;;;;;5013352;28;20179;-76
2022/12/14 03:18:26;;;;;;;26.90;12.63;;;0.40;99.90;;;;;;5012287;28;20621;-76
2022/12/14 03:20:53;;;;;;;26.93;12.33;;;0.20;99.90;;;;;;5013182;28;20180;-76
2022/12/14 03:23:31;;;;;;;27.67;13.20;;;0.30;99.90;;;;;;5012105;28;20537;-76
2022/12/14 03:26:07;;;;;;;27.63;14.10;;;0.30;99.90;;;;;;5012845;28;20298;-75
2022/12/14 03:28:58;;;;;;;21.60;11.97;;;0.30;99.90;;;;;;5013154;28;20171;-76
2022/12/14 03:31:32;;;;;;;25.40;13.57;;;0.20;99.90;;;;;;5013174;28;20179;-75
2022/12/14 03:34:02;;;;;;;24.03;12.40;;;0.20;99.90;;;;;;5013011;28;20245;-74
2022/12/14 03:36:46;;;;;;;25.77;13.63;;;0.20;99.90;;;;;;5012770;28;20171;-76
2022/12/14 03:39:22;;;;;;;29.17;12.90;;;0.20;99.90;;;;;;5012809;28;20670;-75
2022/12/14 03:42:13;;;;;;;27.20;12.17;;;0.30;99.90;;;;;;5012749;28;20176;-75
2022/12/14 03:44:56;;;;;;;24.67;11.50;;;0.40;99.90;;;;;;5011616;28;20561;-73
2022/12/14 03:47:48;;;;;;;23.43;12.07;;;0.30;99.90;;;;;;5013028;28;20168;-73
2022/12/14 03:50:40;;;;;;;28.83;13.30;;;0.30;99.90;;;;;;5003716;28;20175;-74
2022/12/14 03:53:10;;;;;;;24.57;12.50;;;0.40;99.90;;;;;;5010313;28;20324;-74
2022/12/14 03:55:58;;;;;;;23.73;13.30;;;0.40;99.90;;;;;;5012253;28;20653;-85
2022/12/14 03:59:05;;;;;;;25.10;12.87;;;0.30;99.90;;;;;;5012488;28;20183;-73
2022/12/14 04:01:49;;;;;;;22.97;11.83;;;0.40;99.90;;;;;;5012610;28;20190;-73
2022/12/14 04:04:26;;;;;;;23.10;13.03;;;0.50;99.90;;;;;;5012672;28;20248;-74
2022/12/14 04:07:23;;;;;;;24.20;12.83;;;0.40;99.90;;;;;;5014223;28;20234;-73
2022/12/14 04:09:55;;;;;;;27.60;12.50;;;0.30;99.90;;;;;;5016344;28;20195;-76
2022/12/14 04:21:39;;;;;;;26.73;12.50;;;0.10;99.90;;;;;;5016598;28;20546;-75
2022/12/14 04:27:11;;;;;;;26.27;12.37;;;0.30;99.90;;;;;;5016120;28;20192;-75
2022/12/14 04:29:57;;;;;;;22.27;12.23;;;0.30;99.90;;;;;;5015054;28;20179;-75
2022/12/14 04:32:31;;;;;;;24.73;11.87;;;0.30;99.90;;;;;;5016197;28;20768;-72
2022/12/14 04:35:01;;;;;;;24.27;12.77;;;0.10;99.90;;;;;;5014911;28;20197;-73
2022/12/14 04:37:28;;;;;;;27.13;12.80;;;0.30;99.90;;;;;;5014706;28;20627;-73
2022/12/14 04:40:17;;;;;;;27.97;13.40;;;0.30;99.90;;;;;;5015513;28;20549;-70
2022/12/14 04:42:51;;;;;;;29.83;13.70;;;0.40;99.90;;;;;;4996308;28;20173;-72
2022/12/14 04:45:24;;;;;;;23.87;11.90;;;0.50;99.90;;;;;;4996321;28;20534;-71
2022/12/14 04:48:18;;;;;;;23.53;12.30;;;0.60;99.90;;;;;;4996299;28;20524;-71
2022/12/14 04:50:50;;;;;;;23.50;13.50;;;0.40;99.90;;;;;;5011026;28;20185;-72
2022/12/14 04:53:20;;;;;;;28.83;12.67;;;0.40;99.90;;;;;;4995067;28;20179;-72
2022/12/14 04:56:03;;;;;;;25.20;13.13;;;0.40;99.90;;;;;;4996058;28;20161;-72
2022/12/14 04:58:29;;;;;;;22.67;13.67;;;0.50;99.90;;;;;;4996059;28;20604;-71
2022/12/14 05:01:07;;;;;;;28.13;13.03;;;0.40;99.90;;;;;;5005292;28;20607;-75
2022/12/14 05:03:41;;;;;;;25.07;12.43;;;0.50;99.90;;;;;;5015941;28;20224;-75
2022/12/14 05:06:25;;;;;;;23.17;12.00;;;0.50;99.90;;;;;;5015447;28;20288;-75
2022/12/14 05:09:13;;;;;;;26.17;13.73;;;0.40;99.90;;;;;;5015184;28;20533;-75
2022/12/14 05:11:53;;;;;;;23.97;12.50;;;0.50;99.90;;;;;;5015323;28;20181;-75
2022/12/14 05:14:48;;;;;;;23.20;12.43;;;0.60;99.90;;;;;;5015386;28;20170;-75
2022/12/14 05:17:14;;;;;;;25.37;12.53;;;0.50;99.90;;;;;;5013595;28;20279;-75
2022/12/14 05:19:48;;;;;;;23.50;12.37;;;0.50;99.90;;;;;;5015516;28;20169;-75
2022/12/14 05:22:14;;;;;;;24.80;12.60;;;0.40;99.90;;;;;;5014542;28;20172;-76
2022/12/14 05:24:40;;;;;;;23.07;12.47;;;0.50;99.90;;;;;;5014050;28;20219;-76
2022/12/14 05:27:06;;;;;;;26.33;12.60;;;0.50;99.90;;;;;;5015182;28;20185;-76
2022/12/14 05:29:32;;;;;;;25.73;13.23;;;0.70;99.90;;;;;;5015003;28;20276;-76
2022/12/14 05:32:00;;;;;;;26.50;13.43;;;0.60;99.90;;;;;;5013584;28;20210;-76
2022/12/14 05:34:26;;;;;;;23.43;12.17;;;0.60;99.90;;;;;;5013878;28;20521;-75
2022/12/14 05:36:53;;;;;;;26.40;12.67;;;0.70;99.90;;;;;;5014811;28;20178;-75
2022/12/14 05:39:18;;;;;;;24.13;13.30;;;0.70;99.90;;;;;;5013893;28;20621;-75
2022/12/14 05:41:44;;;;;;;25.07;12.63;;;0.70;99.90;;;;;;5015084;28;20183;-76
2022/12/14 05:44:12;;;;;;;23.00;12.77;;;0.70;99.90;;;;;;5014729;28;20177;-76
2022/12/14 05:46:39;;;;;;;26.93;13.23;;;0.70;99.90;;;;;;5013841;28;20196;-75
2022/12/14 05:49:06;;;;;;;23.33;12.50;;;0.60;99.90;;;;;;5014571;28;20176;-76
2022/12/14 05:51:33;;;;;;;26.30;12.23;;;0.80;99.90;;;;;;5014833;28;20564;-74
2022/12/14 05:53:59;;;;;;;24.63;12.97;;;0.80;99.90;;;;;;5014425;28;20169;-76
2022/12/14 05:56:24;;;;;;;24.47;12.33;;;0.80;99.90;;;;;;5014462;28;20534;-75
2022/12/14 05:58:52;;;;;;;25.50;12.57;;;0.70;99.90;;;;;;5013629;28;20174;-76
2022/12/14 06:01:21;;;;;;;27.23;13.30;;;0.80;99.90;;;;;;5013713;28;20183;-76
2022/12/14 06:03:46;;;;;;;24.80;13.27;;;0.80;99.90;;;;;;5014765;28;20165;-76
2022/12/14 06:06:12;;;;;;;26.63;13.27;;;0.60;99.90;;;;;;5014338;28;20561;-75
2022/12/14 06:08:42;;;;;;;27.23;13.40;;;0.70;99.90;;;;;;5014280;28;20172;-76
2022/12/14 06:11:20;;;;;;;29.40;13.97;;;0.70;99.90;;;;;;5014559;28;20189;-76
2022/12/14 06:13:48;;;;;;;26.47;12.80;;;0.60;99.90;;;;;;5013588;28;20601;-74
2022/12/14 06:16:21;;;;;;;25.63;13.70;;;0.50;99.90;;;;;;5013175;28;20268;-76
2022/12/14 06:18:49;;;;;;;29.30;13.37;;;0.50;99.90;;;;;;5012725;28;20665;-75
2022/12/14 06:21:19;;;;;;;22.00;11.90;;;0.60;99.90;;;;;;5012840;28;20197;-75
2022/12/14 06:23:47;;;;;;;28.60;13.20;;;0.50;99.90;;;;;;5014086;28;20188;-74
2022/12/14 06:26:15;;;;;;;25.37;13.10;;;0.60;99.90;;;;;;5005728;28;20224;-74
2022/12/14 06:28:40;;;;;;;25.37;12.67;;;0.60;99.90;;;;;;5006666;28;20187;-74
2022/12/14 06:31:07;;;;;;;29.77;13.80;;;0.60;99.90;;;;;;5012107;28;20165;-74
2022/12/14 06:33:34;;;;;;;22.80;13.10;;;0.60;99.90;;;;;;5010347;28;20200;-74
2022/12/14 06:36:01;;;;;;;24.83;12.33;;;0.50;99.90;;;;;;5011332;28;21186;-74
2022/12/14 06:38:28;;;;;;;25.47;12.90;;;0.50;99.90;;;;;;5010460;28;20197;-75
2022/12/14 06:40:54;;;;;;;32.50;13.60;;;0.40;99.90;;;;;;5009980;28;20270;-74
2022/12/14 06:43:20;;;;;;;27.93;13.40;;;0.40;99.90;;;;;;5010503;28;20256;-74
2022/12/14 06:45:45;;;;;;;25.73;13.17;;;0.20;99.90;;;;;;5011712;28;20235;-74
2022/12/14 06:48:11;;;;;;;26.20;12.60;;;0.20;99.90;;;;;;5011524;28;20412;-74
2022/12/14 06:50:37;;;;;;;27.70;13.87;;;0.30;99.90;;;;;;5011621;28;20247;-74
2022/12/14 06:53:02;;;;;;;27.10;13.57;;;0.30;99.90;;;;;;5010220;28;20191;-74
2022/12/14 06:55:28;;;;;;;24.70;13.10;;;0.20;99.90;;;;;;5011254;28;20230;-74
2022/12/14 06:57:55;;;;;;;29.77;13.73;;;0.20;99.90;;;;;;5011452;28;20186;-74
2022/12/14 07:00:23;;;;;;;29.40;14.60;;;0.20;99.90;;;;;;5010870;28;20263;-74
2022/12/14 07:02:49;;;;;;;34.07;13.63;;;0.20;99.90;;;;;;5010679;28;20181;-74
2022/12/14 07:05:15;;;;;;;26.93;14.30;;;0.20;99.90;;;;;;5009416;28;20179;-74
2022/12/14 07:07:42;;;;;;;27.13;13.53;;;0.30;99.90;;;;;;5011536;28;20227;-74
2022/12/14 07:10:10;;;;;;;31.23;14.77;;;0.30;99.90;;;;;;5011088;28;20562;-74
2022/12/14 07:12:35;;;;;;;29.47;14.17;;;0.30;99.90;;;;;;5011145;28;20169;-74
2022/12/14 07:15:01;;;;;;;29.37;13.90;;;0.30;99.90;;;;;;5010867;28;20552;-74
2022/12/14 07:17:28;;;;;;;25.80;13.80;;;0.40;99.90;;;;;;5009593;28;20169;-74
2022/12/14 07:19:54;;;;;;;28.67;13.87;;;0.30;99.90;;;;;;5010752;28;20184;-74
2022/12/14 07:22:20;;;;;;;27.93;12.37;;;0.40;99.90;;;;;;5010606;28;20175;-74
2022/12/14 07:24:46;;;;;;;29.97;13.13;;;0.40;99.90;;;;;;5010866;28;20190;-74
2022/12/14 07:27:12;;;;;;;26.47;13.60;;;0.30;99.90;;;;;;5008995;28;20214;-74
2022/12/14 07:29:37;;;;;;;24.27;13.47;;;0.40;99.90;;;;;;5011207;28;20260;-74
2022/12/14 07:32:04;;;;;;;26.53;13.33;;;0.40;99.90;;;;;;5011282;28;20180;-73
2022/12/14 07:34:29;;;;;;;29.07;14.60;;;0.20;99.90;;;;;;5010973;28;20184;-73
2022/12/14 07:36:55;;;;;;;25.40;13.67;;;0.20;99.90;;;;;;5009624;28;20179;-73
2022/12/14 07:39:21;;;;;;;27.77;13.73;;;0.20;99.90;;;;;;5010449;28;20606;-73
2022/12/14 07:41:49;;;;;;;28.53;13.63;;;0.10;99.90;;;;;;5010366;28;20176;-73
2022/12/14 07:44:16;;;;;;;29.00;13.37;;;0.10;99.90;;;;;;5010958;28;20198;-72
2022/12/14 07:46:42;;;;;;;25.03;13.57;;;0.00;99.90;;;;;;5010655;28;20702;-73
2022/12/14 07:49:08;;;;;;;32.40;16.47;;;0.10;99.90;;;;;;5010930;28;20179;-72
2022/12/14 07:51:40;;;;;;;33.80;17.80;;;0.10;99.90;;;;;;5010431;28;20186;-74
2022/12/14 07:54:07;;;;;;;46.00;19.20;;;0.00;99.90;;;;;;5011086;28;20175;-74
2022/12/14 07:56:35;;;;;;;33.47;16.43;;;-0.10;99.90;;;;;;5010493;28;20189;-72
2022/12/14 07:59:04;;;;;;;37.97;18.80;;;-0.10;99.90;;;;;;5009695;28;20175;-73
2022/12/14 08:01:32;;;;;;;37.37;17.33;;;-0.10;99.90;;;;;;5009278;28;20185;-73
2022/12/14 08:04:10;;;;;;;33.10;15.70;;;0.10;99.90;;;;;;5008910;28;21096;-73
2022/12/14 08:06:37;;;;;;;34.43;16.87;;;-0.30;99.90;;;;;;5011112;28;20292;-74
2022/12/14 08:09:04;;;;;;;28.17;16.10;;;-0.30;99.90;;;;;;5010677;28;20178;-74
2022/12/14 08:11:29;;;;;;;28.87;14.57;;;-0.40;99.90;;;;;;5010635;28;20591;-73
2022/12/14 08:13:57;;;;;;;36.20;16.30;;;-0.30;99.90;;;;;;5010691;28;20172;-73
2022/12/14 08:16:24;;;;;;;27.37;14.67;;;-0.30;99.90;;;;;;5009807;28;20191;-73
2022/12/14 08:18:53;;;;;;;31.67;14.83;;;-0.40;99.90;;;;;;5011936;28;20166;-73
2022/12/14 08:21:20;;;;;;;28.13;14.10;;;-0.30;99.90;;;;;;5012141;28;20181;-73
2022/12/14 08:23:47;;;;;;;31.87;14.27;;;-0.20;99.90;;;;;;5012387;28;20177;-73
2022/12/14 08:26:13;;;;;;;33.13;14.77;;;-0.20;99.90;;;;;;5012136;28;20533;-74
2022/12/14 08:28:39;;;;;;;28.20;14.13;;;-0.30;99.90;;;;;;5012395;28;20175;-74
2022/12/14 08:31:07;;;;;;;28.43;14.57;;;-0.40;99.90;;;;;;5010885;28;20574;-74
2022/12/14 08:33:37;;;;;;;29.90;14.93;;;-0.60;99.90;;;;;;5012276;28;20202;-74
2022/12/14 08:36:07;;;;;;;32.23;14.60;;;-0.60;99.90;;;;;;5011962;28;20243;-75
2022/12/14 08:38:32;;;;;;;33.67;15.23;;;-0.60;99.90;;;;;;5011885;28;20199;-73
2022/12/14 08:41:03;;;;;;;28.80;14.27;;;-0.50;99.90;;;;;;5010978;28;20581;-73
2022/12/14 08:43:28;;;;;;;30.57;15.43;;;-0.40;99.90;;;;;;5011449;28;20565;-75
2022/12/14 08:45:54;;;;;;;29.93;15.23;;;-0.50;99.90;;;;;;5011943;28;20283;-75
2022/12/14 08:48:20;;;;;;;27.93;14.23;;;-0.40;99.90;;;;;;5012141;28;20177;-75
2022/12/14 08:50:45;;;;;;;30.83;14.50;;;-0.30;99.90;;;;;;5012114;28;20647;-75
2022/12/14 08:53:11;;;;;;;28.43;14.30;;;-0.30;99.90;;;;;;5014263;28;20184;-74
2022/12/14 08:55:37;;;;;;;26.30;14.27;;;-0.30;99.90;;;;;;5015699;28;20186;-75
2022/12/14 08:58:02;;;;;;;30.67;15.10;;;-0.30;99.90;;;;;;5015756;28;20204;-75
2022/12/14 09:00:29;;;;;;;28.10;14.23;;;-0.20;99.90;;;;;;5015402;28;20173;-75
2022/12/14 09:02:54;;;;;;;28.57;14.50;;;-0.10;99.90;;;;;;5015572;28;20166;-75
2022/12/14 09:05:20;;;;;;;27.80;13.97;;;-0.10;99.90;;;;;;5015625;28;20533;-73
2022/12/14 09:07:47;;;;;;;31.07;14.13;;;-0.10;99.90;;;;;;5015187;28;20632;-75
2022/12/14 09:10:12;;;;;;;29.33;14.20;;;0.20;99.90;;;;;;5015509;28;20177;-75
2022/12/14 09:12:39;;;;;;;25.97;13.87;;;0.10;99.90;;;;;;5015496;28;20173;-75
2022/12/14 09:15:06;;;;;;;27.00;14.57;;;0.20;99.90;;;;;;5013862;28;20181;-74
2022/12/14 09:17:33;;;;;;;28.17;14.83;;;0.20;99.90;;;;;;5015166;28;20203;-75
2022/12/14 09:19:58;;;;;;;31.73;15.30;;;0.20;99.90;;;;;;5013930;28;20179;-73
2022/12/14 09:22:24;;;;;;;28.10;14.50;;;0.10;99.90;;;;;;5015053;28;20187;-75
2022/12/14 09:24:50;;;;;;;29.27;15.17;;;0.40;99.90;;;;;;5013899;28;20260;-74
2022/12/14 09:27:16;;;;;;;31.70;15.30;;;0.40;99.90;;;;;;5014997;28;20561;-75
2022/12/14 09:29:42;;;;;;;32.20;16.00;;;0.40;99.90;;;;;;5015063;28;20240;-74
2022/12/14 09:32:08;;;;;;;28.20;14.80;;;0.20;99.90;;;;;;5015102;28;20191;-75
2022/12/14 09:34:34;;;;;;;28.60;14.63;;;0.10;99.90;;;;;;5013682;28;20208;-74
2022/12/14 09:37:03;;;;;;;30.70;14.47;;;0.00;99.90;;;;;;5014868;28;20173;-74
2022/12/14 09:39:30;;;;;;;29.20;15.60;;;0.20;99.90;;;;;;5014867;28;20542;-75
2022/12/14 09:42:12;;;;;;;28.33;14.73;;;0.00;99.90;;;;;;5013609;28;20202;-74
2022/12/14 09:44:50;;;;;;;40.13;15.77;;;-0.10;99.90;;;;;;5014610;28;20180;-74
2022/12/14 09:47:34;;;;;;;33.83;16.00;;;-0.10;99.90;;;;;;5014460;28;20224;-74
2022/12/14 09:50:11;;;;;;;33.70;14.93;;;-0.30;99.90;;;;;;5014766;28;20166;-74
2022/12/14 09:52:53;;;;;;;32.73;16.43;;;-0.30;99.90;;;;;;5014536;28;20164;-75
2022/12/14 09:55:28;;;;;;;28.03;15.10;;;-0.20;99.90;;;;;;5014663;28;20183;-75
2022/12/14 09:58:17;;;;;;;30.53;14.47;;;-0.10;99.90;;;;;;5014458;28;20168;-75
2022/12/14 10:00:46;;;;;;;35.47;15.30;;;0.00;99.90;;;;;;5013309;28;20187;-73
2022/12/14 10:03:23;;;;;;;33.10;15.70;;;0.00;99.90;;;;;;5012465;28;20179;-74
2022/12/14 10:06:10;;;;;;;25.67;13.93;;;0.00;99.90;;;;;;5014323;28;20242;-75
2022/12/14 10:09:02;;;;;;;26.10;13.93;;;0.20;99.90;;;;;;5014274;28;20183;-75
2022/12/14 10:11:40;;;;;;;27.53;14.30;;;0.00;99.90;;;;;;5014215;28;20175;-75
2022/12/14 10:14:19;;;;;;;23.30;13.00;;;0.40;99.90;;;;;;5014010;28;20164;-75
2022/12/14 10:16:50;;;;;;;24.40;14.03;;;0.90;99.90;;;;;;5014323;28;20260;-75
2022/12/14 10:19:32;;;;;;;28.73;14.17;;;1.30;99.90;;;;;;5014228;28;20640;-74
2022/12/14 10:22:03;;;;;;;26.07;13.07;;;1.70;99.90;;;;;;5014174;28;20193;-74
2022/12/14 10:24:49;;;;;;;23.70;13.73;;;1.90;99.90;;;;;;5014217;28;20179;-75
2022/12/14 10:27:28;;;;;;;24.47;14.07;;;2.10;99.90;;;;;;5014004;28;20718;-75
2022/12/14 10:30:04;;;;;;;30.30;14.67;;;2.40;99.90;;;;;;5012732;28;20208;-74
2022/12/14 10:32:36;;;;;;;25.70;13.70;;;2.70;99.90;;;;;;5013880;28;20181;-75
2022/12/14 10:35:14;;;;;;;26.63;13.53;;;3.30;99.90;;;;;;5014018;28;20645;-74
2022/12/14 10:37:49;;;;;;;24.80;13.80;;;3.60;99.90;;;;;;5014239;28;20162;-74
2022/12/14 10:40:30;;;;;;;22.70;12.77;;;4.20;99.90;;;;;;5014290;28;20176;-74
2022/12/14 10:43:20;;;;;;;23.03;12.87;;;4.40;99.90;;;;;;5013888;28;20584;-75
2022/12/14 10:45:56;;;;;;;22.63;12.00;;;5.00;99.90;;;;;;5013630;28;20224;-75
2022/12/14 10:48:50;;;;;;;26.67;14.53;;;5.30;99.90;;;;;;5013774;28;20166;-74
2022/12/14 10:51:43;;;;;;;23.73;13.10;;;5.60;99.90;;;;;;5013679;28;20170;-75
2022/12/14 10:54:32;;;;;;;25.87;12.23;;;5.80;99.90;;;;;;5013506;28;20174;-75
2022/12/14 10:56:58;;;;;;;26.30;13.30;;;6.30;99.90;;;;;;5013284;28;20310;-73
2022/12/14 10:59:28;;;;;;;31.37;13.43;;;6.30;99.90;;;;;;5013264;28;20248;-75
2022/12/14 11:02:06;;;;;;;23.87;12.87;;;6.70;99.20;;;;;;5013436;28;20179;-74
2022/12/14 11:04:44;;;;;;;26.17;13.13;;;7.20;98.10;;;;;;5013159;28;20252;-74
2022/12/14 11:07:14;;;;;;;24.90;13.37;;;7.60;97.00;;;;;;5013452;28;20199;-74
2022/12/14 11:09:41;;;;;;;27.00;13.57;;;7.90;96.30;;;;;;5012105;28;20176;-74
2022/12/14 11:12:12;;;;;;;26.17;14.20;;;8.40;95.70;;;;;;5013322;28;20222;-73
2022/12/14 11:15:04;;;;;;;23.67;12.80;;;8.50;94.70;;;;;;5012977;28;20681;-74
2022/12/14 11:17:36;;;;;;;25.20;13.33;;;8.50;94.10;;;;;;5013122;28;20240;-74
2022/12/14 11:20:23;;;;;;;26.23;13.37;;;8.70;94.10;;;;;;5012858;28;20178;-73
2022/12/14 11:22:55;;;;;;;24.87;13.63;;;9.20;93.60;;;;;;5013104;28;20165;-74
2022/12/14 11:25:29;;;;;;;21.13;12.67;;;9.60;93.00;;;;;;5012666;28;20535;-74
2022/12/14 11:27:57;;;;;;;22.53;12.87;;;9.80;92.40;;;;;;5013142;28;20169;-75
2022/12/14 11:30:23;;;;;;;22.37;13.20;;;10.00;92.00;;;;;;5011685;28;20169;-75
2022/12/14 11:32:50;;;;;;;21.93;13.50;;;10.30;91.40;;;;;;5013023;28;20187;-74
2022/12/14 11:35:19;;;;;;;22.87;13.50;;;10.40;90.90;;;;;;5012926;28;20169;-74
2022/12/14 11:37:58;;;;;;;22.57;13.10;;;9.80;91.10;;;;;;5012932;28;20700;-75
2022/12/14 11:40:26;;;;;;;28.27;13.20;;;9.50;91.20;;;;;;5011373;28;20323;-76
2022/12/14 11:43:00;;;;;;;21.90;13.93;;;8.40;91.90;;;;;;5011576;28;20189;-75
2022/12/14 11:45:32;;;;;;;23.50;13.80;;;7.60;93.30;;;;;;5012862;28;20704;-74
2022/12/14 11:48:23;;;;;;;25.77;14.27;;;7.80;93.70;;;;;;5012758;28;20172;-75
2022/12/14 11:50:52;;;;;;;22.43;13.47;;;8.50;93.10;;;;;;5012822;28;20165;-75
2022/12/14 11:53:19;;;;;;;24.17;14.30;;;9.00;92.60;;;;;;5012797;28;20173;-76
2022/12/14 11:55:53;;;;;;;23.60;14.10;;;9.20;92.30;;;;;;5011237;28;20180;-75
2022/12/14 11:58:30;;;;;;;23.73;13.97;;;9.30;92.20;;;;;;5011501;28;20181;-74
2022/12/14 12:01:12;;;;;;;22.13;14.13;;;9.20;92.30;;;;;;5012767;28;20256;-75
2022/12/14 12:03:48;;;;;;;24.17;13.17;;;9.50;91.70;;;;;;5012785;28;20188;-75
2022/12/14 12:06:21;;;;;;;24.93;14.43;;;8.50;92.30;;;;;;5011338;28;20607;-75
2022/12/14 12:08:55;;;;;;;20.37;13.17;;;7.80;93.50;;;;;;5012664;28;20161;-75
2022/12/14 12:11:25;;;;;;;20.90;13.47;;;8.40;92.80;;;;;;5012494;28;20528;-75
2022/12/14 12:14:12;;;;;;;22.63;13.93;;;8.70;92.80;;;;;;5012624;28;20228;-75
2022/12/14 12:16:42;;;;;;;21.60;13.07;;;9.00;92.30;;;;;;5007156;28;20203;-75
2022/12/14 12:19:17;;;;;;;23.07;13.67;;;9.00;91.80;;;;;;5011377;28;20181;-75
2022/12/14 12:21:44;;;;;;;21.03;13.67;;;8.40;92.30;;;;;;5012474;28;20232;-75
2022/12/14 12:24:33;;;;;;;24.17;13.37;;;7.60;93.60;;;;;;5012297;28;20220;-75
2022/12/14 12:27:02;;;;;;;22.47;13.13;;;6.30;94.90;;;;;;5013923;28;20257;-75
2022/12/14 12:29:41;;;;;;;22.23;13.53;;;5.30;97.30;;;;;;5016385;28;20600;-76
2022/12/14 12:32:27;;;;;;;26.03;14.90;;;4.80;98.70;;;;;;5016135;28;20173;-74
2022/12/14 12:34:58;;;;;;;24.47;14.00;;;4.50;99.70;;;;;;5015058;28;20173;-75
2022/12/14 12:37:53;;;;;;;26.53;13.77;;;3.90;99.90;;;;;;5016298;28;20252;-75
2022/12/14 12:40:32;;;;;;;26.30;13.83;;;3.60;99.90;;;;;;5016155;28;20192;-75
2022/12/14 12:43:01;;;;;;;25.77;13.93;;;3.30;99.90;;;;;;5015890;28;20173;-75
2022/12/14 12:45:30;;;;;;;24.53;13.80;;;2.90;99.90;;;;;;5014740;28;20268;-75
2022/12/14 12:48:14;;;;;;;26.67;14.57;;;2.90;99.90;;;;;;5014564;28;20169;-75
2022/12/14 12:50:54;;;;;;;28.93;13.40;;;2.70;99.90;;;;;;5015841;28;20200;-75
2022/12/14 12:53:34;;;;;;;29.13;13.33;;;2.80;99.90;;;;;;5015948;28;20522;-75
2022/12/14 12:56:40;;;;;;;23.30;13.73;;;2.60;99.90;;;;;;5015975;28;20219;-75
2022/12/14 12:59:12;;;;;;;24.00;14.10;;;2.60;99.90;;;;;;5015638;28;20193;-74
2022/12/14 13:01:43;;;;;;;25.53;14.57;;;2.50;99.90;;;;;;5015711;28;20177;-74
2022/12/14 13:04:17;;;;;;;31.13;14.37;;;2.60;99.90;;;;;;5015746;28;20263;-75
2022/12/14 13:06:51;;;;;;;26.77;14.40;;;2.70;99.90;;;;;;5015252;28;20223;-76
2022/12/14 13:09:35;;;;;;;25.97;14.40;;;2.70;99.90;;;;;;5014500;28;20646;-76
2022/12/14 13:12:04;;;;;;;28.70;13.93;;;2.50;99.90;;;;;;5015494;28;20556;-74